createdAt,value
2022-11-12T00:01:11.823Z,164.32
2022-11-12T00:03:39.742Z,172.00
2022-11-12T00:06:07.795Z,181.88
2022-11-12T00:08:35.860Z,181.05
2022-11-12T00:11:04.940Z,181.55
2022-11-12T00:13:32.879Z,181.30
2022-11-12T00:16:02.180Z,191.00
2022-11-12T00:18:30.072Z,186.63
2022-11-12T00:20:58.094Z,191.63
2022-11-12T00:23:26.016Z,181.65
2022-11-12T00:26:00.192Z,187.27
2022-11-12T00:28:31.072Z,186.63
2022-11-12T00:31:08.574Z,184.07
2022-11-12T00:33:40.561Z,184.02
2022-11-12T00:36:08.941Z,185.40
2022-11-12T00:38:36.900Z,189.00
2022-11-12T00:41:04.950Z,183.68
2022-11-12T00:43:32.854Z,183.88
2022-11-12T00:46:02.114Z,178.52
2022-11-12T00:48:30.018Z,171.80
2022-11-12T00:51:02.560Z,165.85
2022-11-12T00:53:30.707Z,160.73
2022-11-12T00:56:02.558Z,157.07
2022-11-12T00:58:31.193Z,151.90
2022-11-12T01:00:59.448Z,149.77
2022-11-12T01:03:30.301Z,141.07
2022-11-12T01:06:03.601Z,138.07
2022-11-12T01:08:31.689Z,137.13
2022-11-12T01:11:06.573Z,135.30
2022-11-12T01:13:42.851Z,121.18
2022-11-12T01:16:14.851Z,122.80
2022-11-12T01:18:44.979Z,114.68
2022-11-12T01:21:14.080Z,113.65
2022-11-12T01:23:43.294Z,112.95
2022-11-12T01:26:14.040Z,107.68
2022-11-12T01:28:42.776Z,109.00
2022-11-12T01:31:16.581Z,105.97
2022-11-12T01:33:47.502Z,101.22
2022-11-12T01:36:16.732Z,101.47
2022-11-12T01:38:45.643Z,99.65
2022-11-12T01:41:16.340Z,95.40
2022-11-12T01:43:44.409Z,95.10
2022-11-12T01:46:19.620Z,93.45
2022-11-12T01:48:53.121Z,96.15
2022-11-12T01:51:22.697Z,93.80
2022-11-12T01:53:54.197Z,93.22
2022-11-12T01:56:24.434Z,96.33
2022-11-12T01:58:57.026Z,93.93
2022-11-12T02:01:25.070Z,90.68
2022-11-12T02:03:54.463Z,95.60
2022-11-12T02:06:22.645Z,100.78
2022-11-12T02:08:51.326Z,95.57
2022-11-12T02:11:21.948Z,99.78
2022-11-12T02:14:01.387Z,100.00
2022-11-12T02:16:33.392Z,97.70
2022-11-12T02:19:03.198Z,92.70
2022-11-12T02:21:32.957Z,96.75
2022-11-12T02:24:02.714Z,95.85
2022-11-12T02:26:34.993Z,94.18
2022-11-12T02:29:04.032Z,95.72
2022-11-12T02:31:32.493Z,98.85
2022-11-12T02:34:00.537Z,95.40
2022-11-12T02:36:28.815Z,94.97
2022-11-12T02:38:58.601Z,96.38
2022-11-12T02:41:26.545Z,92.93
2022-11-12T02:43:54.417Z,90.97
2022-11-12T02:46:22.489Z,90.28
2022-11-12T02:48:50.423Z,91.07
2022-11-12T02:51:18.280Z,96.53
2022-11-12T02:53:46.189Z,96.78
2022-11-12T02:56:15.429Z,100.25
2022-11-12T02:58:43.404Z,97.63
2022-11-12T03:01:11.370Z,102.45
2022-11-12T03:03:39.404Z,97.38
2022-11-12T03:06:08.148Z,97.63
2022-11-12T03:08:36.034Z,99.47
2022-11-12T03:11:07.966Z,98.70
2022-11-12T03:13:37.570Z,95.20
2022-11-12T03:16:06.136Z,92.45
2022-11-12T03:18:34.049Z,94.43
2022-11-12T03:21:01.981Z,96.57
2022-11-12T03:23:29.902Z,92.38
2022-11-12T03:25:57.836Z,92.18
2022-11-12T03:28:25.997Z,92.97
2022-11-12T03:30:58.892Z,90.32
2022-11-12T03:33:27.223Z,96.13
2022-11-12T03:35:55.191Z,94.75
2022-11-12T03:38:23.298Z,88.75
2022-11-12T03:40:51.333Z,88.60
2022-11-12T03:43:19.289Z,84.93
2022-11-12T03:45:47.292Z,85.75
2022-11-12T03:48:16.582Z,85.93
2022-11-12T03:50:45.596Z,90.75
2022-11-12T03:53:13.577Z,89.28
2022-11-12T03:55:41.704Z,86.75
2022-11-12T03:58:09.583Z,88.82
2022-11-12T04:00:37.499Z,87.97
2022-11-12T04:03:05.638Z,81.60
2022-11-12T04:05:52.892Z,79.88
2022-11-12T04:08:37.849Z,76.82
2022-11-12T04:11:09.075Z,74.43
2022-11-12T04:13:38.472Z,73.95
2022-11-12T04:16:27.462Z,67.10
2022-11-12T04:19:14.498Z,61.55
2022-11-12T04:21:52.148Z,56.00
2022-11-12T04:24:39.112Z,52.05
2022-11-12T04:27:08.077Z,52.95
2022-11-12T04:29:53.754Z,49.83
2022-11-12T04:32:22.322Z,53.00
2022-11-12T04:34:50.313Z,52.60
2022-11-12T04:37:23.317Z,54.80
2022-11-12T04:39:51.821Z,53.78
2022-11-12T04:42:38.024Z,44.13
2022-11-12T04:45:08.396Z,48.20
2022-11-12T04:47:38.583Z,47.97
2022-11-12T04:50:08.410Z,47.00
2022-11-12T04:52:37.693Z,44.63
2022-11-12T04:55:06.500Z,45.55
2022-11-12T04:57:34.393Z,47.78
2022-11-12T05:00:02.482Z,48.53
2022-11-12T05:02:30.402Z,50.70
2022-11-12T05:04:58.291Z,45.85
2022-11-12T05:07:26.338Z,49.60
2022-11-12T05:09:55.571Z,45.38
2022-11-12T05:12:23.471Z,42.90
2022-11-12T05:14:51.396Z,41.90
2022-11-12T05:17:19.408Z,44.53
2022-11-12T05:19:47.269Z,43.65
2022-11-12T05:22:40.267Z,43.88
2022-11-12T05:25:05.414Z,45.38
2022-11-12T05:27:33.336Z,48.38
2022-11-12T05:30:01.566Z,48.10
2022-11-12T05:32:29.481Z,51.20
2022-11-12T05:34:57.358Z,43.97
2022-11-12T05:37:25.243Z,48.25
2022-11-12T05:39:53.154Z,49.25
2022-11-12T05:42:22.393Z,47.75
2022-11-12T05:44:50.322Z,47.47
2022-11-12T05:47:18.196Z,46.65
2022-11-12T05:49:46.112Z,49.13
2022-11-12T05:52:13.964Z,50.05
2022-11-12T05:54:41.819Z,48.47
2022-11-12T05:57:09.731Z,45.95
2022-11-12T05:59:38.954Z,45.22
2022-11-12T06:02:07.026Z,49.05
2022-11-12T06:04:34.971Z,53.30
2022-11-12T06:07:04.258Z,45.03
2022-11-12T06:09:32.248Z,52.13
2022-11-12T06:12:00.129Z,49.10
2022-11-12T06:14:28.067Z,49.17
2022-11-12T06:16:57.288Z,49.33
2022-11-12T06:19:25.164Z,46.63
2022-11-12T06:21:53.028Z,53.30
2022-11-12T06:24:21.324Z,49.97
2022-11-12T06:26:49.201Z,51.25
2022-11-12T06:29:17.120Z,55.55
2022-11-12T06:31:45.017Z,50.13
2022-11-12T06:34:14.833Z,48.45
2022-11-12T06:36:42.736Z,55.85
2022-11-12T06:39:11.824Z,54.22
2022-11-12T06:41:39.720Z,48.22
2022-11-12T06:44:07.705Z,47.95
2022-11-12T06:46:35.579Z,44.85
2022-11-12T06:49:03.493Z,43.72
2022-11-12T06:51:32.808Z,41.88
2022-11-12T06:54:00.678Z,42.67
2022-11-12T06:56:28.588Z,41.30
2022-11-12T06:58:56.493Z,41.70
2022-11-12T07:01:24.795Z,39.70
2022-11-12T07:03:53.813Z,37.95
2022-11-12T07:06:22.098Z,38.75
2022-11-12T07:08:51.705Z,37.20
2022-11-12T07:11:20.666Z,36.45
2022-11-12T07:13:48.725Z,37.83
2022-11-12T07:16:18.672Z,35.45
2022-11-12T07:18:48.032Z,35.38
2022-11-12T07:21:18.216Z,38.08
2022-11-12T07:23:46.834Z,37.03
2022-11-12T07:26:17.950Z,37.13
2022-11-12T07:28:46.236Z,38.63
2022-11-12T07:31:15.843Z,36.55
2022-11-12T07:33:44.410Z,40.10
2022-11-12T07:36:14.704Z,39.30
2022-11-12T07:38:44.002Z,42.95
2022-11-12T07:41:14.680Z,41.22
2022-11-12T07:43:45.382Z,41.10
2022-11-12T07:46:15.800Z,44.83
2022-11-12T07:48:44.572Z,46.03
2022-11-12T07:51:15.565Z,47.50
2022-11-12T07:53:44.294Z,48.28
2022-11-12T07:56:13.132Z,44.75
2022-11-12T07:58:41.268Z,50.35
2022-11-12T08:01:11.770Z,51.17
2022-11-12T08:03:39.680Z,52.10
2022-11-12T08:06:08.307Z,56.60
2022-11-12T08:08:37.759Z,55.90
2022-11-12T08:11:06.016Z,55.50
2022-11-12T08:13:33.870Z,55.60
2022-11-12T08:16:01.786Z,57.13
2022-11-12T08:18:31.887Z,62.63
2022-11-12T08:21:04.027Z,65.20
2022-11-12T08:23:32.321Z,65.80
2022-11-12T08:26:00.492Z,66.78
2022-11-12T08:28:30.132Z,69.50
2022-11-12T08:30:59.490Z,75.65
2022-11-12T08:33:27.381Z,76.00
2022-11-12T08:35:57.368Z,77.50
2022-11-12T08:38:25.695Z,77.15
2022-11-12T08:40:53.940Z,77.90
2022-11-12T08:43:21.927Z,81.07
2022-11-12T08:45:50.198Z,82.43
2022-11-12T08:48:18.063Z,87.07
2022-11-12T08:50:45.956Z,92.03
2022-11-12T08:53:15.233Z,93.68
2022-11-12T08:55:43.150Z,93.30
2022-11-12T08:58:11.325Z,96.47
2022-11-12T09:00:41.805Z,95.38
2022-11-12T09:03:14.622Z,93.38
2022-11-12T09:05:42.750Z,85.78
2022-11-12T09:08:12.573Z,90.60
2022-11-12T09:10:42.731Z,90.32
2022-11-12T09:13:10.828Z,89.45
2022-11-12T09:15:39.311Z,85.93
2022-11-12T09:18:08.767Z,85.43
2022-11-12T09:20:36.650Z,85.70
2022-11-12T09:23:06.467Z,83.90
2022-11-12T09:25:35.388Z,78.18
2022-11-12T09:28:09.820Z,75.07
2022-11-12T09:30:38.255Z,74.22
2022-11-12T09:33:06.397Z,69.50
2022-11-12T09:35:34.327Z,64.43
2022-11-12T09:38:02.186Z,62.85
2022-11-12T09:40:47.113Z,65.65
2022-11-12T09:43:23.441Z,62.17
2022-11-12T09:46:13.584Z,60.90
2022-11-12T09:48:45.521Z,59.22
2022-11-12T09:51:25.168Z,55.10
2022-11-12T09:53:57.315Z,56.72
2022-11-12T09:56:28.220Z,56.42
2022-11-12T09:58:57.789Z,53.97
2022-11-12T10:01:39.750Z,52.92
2022-11-12T10:04:24.976Z,49.78
2022-11-12T10:06:59.376Z,47.55
2022-11-12T10:09:32.380Z,44.20
2022-11-12T10:12:27.576Z,42.85
2022-11-12T10:15:48.910Z,42.92
2022-11-12T10:18:25.381Z,43.83
2022-11-12T10:20:57.200Z,42.17
2022-11-12T10:23:30.375Z,37.07
2022-11-12T10:26:00.768Z,34.55
2022-11-12T10:28:38.378Z,31.40
2022-11-12T10:31:13.575Z,34.95
2022-11-12T10:33:41.526Z,25.48
2022-11-12T10:36:30.877Z,27.73
2022-11-12T10:38:58.832Z,29.38
2022-11-12T10:41:28.332Z,30.67
2022-11-12T10:43:58.756Z,26.67
2022-11-12T10:46:30.330Z,24.80
2022-11-12T10:49:02.353Z,22.93
2022-11-12T10:51:33.260Z,17.30
2022-11-12T10:54:19.685Z,18.85
2022-11-12T10:56:54.940Z,17.67
2022-11-12T10:59:25.213Z,16.63
2022-11-12T11:01:58.516Z,17.92
2022-11-12T11:04:31.700Z,13.68
2022-11-12T11:07:02.982Z,9.45
2022-11-12T11:09:31.360Z,12.30
2022-11-12T11:11:59.636Z,9.60
2022-11-12T11:14:33.071Z,9.15
2022-11-12T11:17:08.297Z,10.85
2022-11-12T11:19:42.050Z,9.95
2022-11-12T11:22:31.084Z,10.93
2022-11-12T11:25:21.537Z,11.15
2022-11-12T11:28:03.142Z,10.45
2022-11-12T11:30:31.398Z,9.50
2022-11-12T11:33:26.621Z,9.27
2022-11-12T11:36:03.945Z,8.98
2022-11-12T11:38:41.817Z,9.27
2022-11-12T11:41:22.056Z,8.07
2022-11-12T11:44:02.664Z,8.02
2022-11-12T11:46:44.325Z,6.38
2022-11-12T11:49:39.183Z,7.35
2022-11-12T11:52:20.926Z,8.43
2022-11-12T11:55:10.713Z,8.33
2022-11-12T11:57:48.688Z,6.75
2022-11-12T12:00:20.855Z,5.82
2022-11-12T12:03:21.553Z,6.07
2022-11-12T12:06:10.604Z,4.50
2022-11-12T12:08:53.514Z,4.78
2022-11-12T12:11:25.720Z,4.30
2022-11-12T12:14:14.939Z,3.97
2022-11-12T12:16:59.126Z,3.85
2022-11-12T12:19:37.449Z,4.50
2022-11-12T12:22:13.249Z,5.13
2022-11-12T12:24:48.733Z,6.13
2022-11-12T12:27:20.313Z,7.22
2022-11-12T12:29:51.843Z,7.00
2022-11-12T12:32:24.425Z,5.93
2022-11-12T12:34:57.505Z,7.15
2022-11-12T12:37:36.409Z,6.15
2022-11-12T12:40:15.001Z,6.53
2022-11-12T12:42:47.539Z,6.15
2022-11-12T12:45:36.152Z,5.38
2022-11-12T12:48:06.881Z,5.40
2022-11-12T12:50:39.572Z,5.88
2022-11-12T12:53:18.402Z,5.05
2022-11-12T12:55:49.858Z,3.65
2022-11-12T12:58:26.876Z,2.87
2022-11-12T13:01:01.434Z,2.60
2022-11-12T13:03:55.181Z,3.05
2022-11-12T13:06:33.335Z,4.00
2022-11-12T13:09:05.011Z,3.78
2022-11-12T13:12:11.297Z,4.13
2022-11-12T13:15:10.837Z,3.60
2022-11-12T13:17:52.539Z,4.20
2022-11-12T13:20:39.597Z,4.47
2022-11-12T13:23:31.499Z,4.95
2022-11-12T13:26:32.864Z,4.93
2022-11-12T13:29:22.739Z,5.68
2022-11-12T13:31:51.452Z,5.82
2022-11-12T13:34:22.837Z,5.25
2022-11-12T13:36:59.381Z,5.80
2022-11-12T13:39:27.360Z,5.57
2022-11-12T13:42:17.254Z,5.47
2022-11-12T13:44:52.066Z,5.70
2022-11-12T13:47:24.593Z,6.00
2022-11-12T13:49:52.544Z,4.60
2022-11-12T13:52:21.095Z,4.95
2022-11-12T13:55:01.501Z,4.95
2022-11-12T13:57:32.411Z,5.18
2022-11-12T14:00:26.283Z,5.70
2022-11-12T14:02:57.408Z,5.68
2022-11-12T14:05:27.741Z,5.70
2022-11-12T14:08:26.804Z,5.47
2022-11-12T14:11:08.762Z,6.75
2022-11-12T14:13:50.937Z,6.55
2022-11-12T14:16:49.147Z,6.28
2022-11-12T14:19:41.159Z,6.93
2022-11-12T14:22:15.851Z,7.50
2022-11-12T14:24:45.821Z,8.07
2022-11-12T14:27:33.143Z,7.50
2022-11-12T14:30:14.065Z,7.88
2022-11-12T14:32:44.502Z,6.47
2022-11-12T14:35:33.946Z,7.07
2022-11-12T14:38:10.954Z,6.95
2022-11-12T14:40:44.451Z,6.97
2022-11-12T14:43:27.721Z,6.70
2022-11-12T14:45:58.072Z,6.80
2022-11-12T14:48:27.984Z,7.30
2022-11-12T14:51:01.921Z,7.57
2022-11-12T14:53:34.779Z,7.60
2022-11-12T14:56:08.191Z,6.80
2022-11-12T14:58:36.501Z,7.45
2022-11-12T15:01:59.363Z,7.55
2022-11-12T15:04:21.729Z,8.10
2022-11-12T15:06:54.359Z,7.43
2022-11-12T15:09:34.676Z,7.80
2022-11-12T15:12:04.346Z,8.40
2022-11-12T15:14:32.502Z,7.90
2022-11-12T15:17:01.190Z,8.50
2022-11-12T15:19:30.924Z,8.55
2022-11-12T15:22:01.201Z,9.32
2022-11-12T15:24:33.181Z,9.23
2022-11-12T15:27:02.869Z,9.25
2022-11-12T15:29:33.192Z,9.05
2022-11-12T15:32:03.456Z,8.95
2022-11-12T15:34:46.590Z,9.35
2022-11-12T15:37:23.879Z,9.68
2022-11-12T15:39:54.968Z,9.27
2022-11-12T15:42:28.657Z,10.48
2022-11-12T15:45:00.481Z,10.13
2022-11-12T15:47:28.679Z,9.75
2022-11-12T15:49:59.672Z,10.80
2022-11-12T15:52:27.772Z,10.40
2022-11-12T15:54:55.919Z,12.30
2022-11-12T15:57:26.488Z,10.90
2022-11-12T16:00:01.622Z,9.95
2022-11-12T16:02:32.940Z,11.00
2022-11-12T16:05:02.361Z,10.70
2022-11-12T16:07:30.238Z,10.88
2022-11-12T16:09:58.112Z,11.00
2022-11-12T16:12:26.082Z,11.00
2022-11-12T16:14:53.963Z,10.73
2022-11-12T16:17:26.606Z,11.32
2022-11-12T16:19:54.453Z,11.02
2022-11-12T16:22:23.736Z,11.63
2022-11-12T16:24:51.869Z,12.55
2022-11-12T16:27:20.551Z,12.38
2022-11-12T16:29:48.430Z,12.35
2022-11-12T16:32:16.567Z,12.32
2022-11-12T16:34:44.455Z,12.93
2022-11-12T16:37:13.402Z,12.23
2022-11-12T16:39:42.698Z,12.88
2022-11-12T16:42:11.515Z,12.88
2022-11-12T16:44:39.396Z,14.77
2022-11-12T16:47:07.494Z,13.18
2022-11-12T16:49:38.640Z,13.80
2022-11-12T16:52:07.384Z,14.30
2022-11-12T16:54:37.909Z,15.45
2022-11-12T16:57:07.296Z,14.10
2022-11-12T16:59:35.220Z,15.25
2022-11-12T17:02:03.429Z,15.02
2022-11-12T17:04:31.319Z,16.42
2022-11-12T17:06:59.236Z,15.60
2022-11-12T17:09:27.553Z,15.35
2022-11-12T17:11:55.411Z,15.77
2022-11-12T17:14:28.334Z,16.15
2022-11-12T17:16:56.589Z,17.30
2022-11-12T17:19:24.585Z,17.02
2022-11-12T17:21:52.626Z,17.15
2022-11-12T17:24:20.561Z,18.95
2022-11-12T17:26:48.552Z,20.33
2022-11-12T17:29:16.466Z,20.10
2022-11-12T17:31:48.649Z,19.50
2022-11-12T17:34:16.682Z,20.95
2022-11-12T17:36:44.601Z,21.40
2022-11-12T17:39:13.900Z,21.40
2022-11-12T17:41:41.829Z,20.13
2022-11-12T17:44:15.525Z,20.35
2022-11-12T17:46:44.964Z,21.35
2022-11-12T17:49:14.023Z,21.45
2022-11-12T17:51:42.190Z,21.30
2022-11-12T17:54:10.226Z,21.98
2022-11-12T17:56:38.156Z,23.80
2022-11-12T17:59:06.623Z,22.17
2022-11-12T18:01:35.376Z,20.65
2022-11-12T18:04:04.905Z,22.52
2022-11-12T18:06:34.860Z,22.85
2022-11-12T18:09:05.556Z,21.90
2022-11-12T18:11:42.735Z,23.55
2022-11-12T18:14:10.789Z,25.35
2022-11-12T18:16:40.204Z,22.77
2022-11-12T18:19:11.049Z,25.83
2022-11-12T18:21:41.342Z,24.33
2022-11-12T18:24:14.780Z,24.42
2022-11-12T18:26:44.236Z,25.60
2022-11-12T18:29:13.039Z,25.13
2022-11-12T18:31:41.451Z,27.50
2022-11-12T18:34:14.858Z,26.83
2022-11-12T18:36:42.778Z,26.48
2022-11-12T18:39:10.840Z,26.23
2022-11-12T18:41:38.758Z,26.27
2022-11-12T18:44:06.685Z,29.10
2022-11-12T18:46:34.704Z,29.55
2022-11-12T18:49:02.555Z,31.52
2022-11-12T18:51:33.092Z,29.40
2022-11-12T18:54:01.080Z,32.47
2022-11-12T18:56:28.976Z,31.27
2022-11-12T18:58:56.867Z,32.33
2022-11-12T19:01:26.062Z,33.25
2022-11-12T19:03:56.309Z,33.75
2022-11-12T19:06:25.206Z,34.80
2022-11-12T19:08:59.757Z,34.92
2022-11-12T19:11:27.900Z,34.13
2022-11-12T19:13:56.689Z,33.08
2022-11-12T19:16:25.040Z,33.88
2022-11-12T19:18:54.290Z,35.53
2022-11-12T19:21:23.785Z,34.20
2022-11-12T19:23:55.786Z,37.10
2022-11-12T19:26:24.864Z,39.45
2022-11-12T19:28:52.947Z,38.97
2022-11-12T19:31:23.566Z,37.60
2022-11-12T19:33:51.966Z,35.97
2022-11-12T19:36:22.124Z,34.67
2022-11-12T19:38:55.833Z,35.58
2022-11-12T19:41:24.344Z,34.72
2022-11-12T19:43:52.527Z,39.25
2022-11-12T19:46:20.967Z,40.60
2022-11-12T19:48:48.917Z,41.00
2022-11-12T19:51:19.105Z,43.25
2022-11-12T19:53:47.054Z,43.47
2022-11-12T19:56:18.756Z,42.22
2022-11-12T19:58:48.065Z,40.90
2022-11-12T20:01:17.693Z,40.22
2022-11-12T20:03:46.366Z,43.00
2022-11-12T20:06:15.771Z,41.97
2022-11-12T20:08:43.730Z,45.30
2022-11-12T20:11:12.185Z,44.13
2022-11-12T20:13:41.459Z,44.63
2022-11-12T20:16:10.504Z,44.00
2022-11-12T20:18:38.392Z,47.60
2022-11-12T20:21:07.821Z,47.72
2022-11-12T20:23:36.874Z,46.80
2022-11-12T20:26:06.895Z,48.00
2022-11-12T20:28:35.399Z,47.63
2022-11-12T20:31:06.880Z,53.05
2022-11-12T20:33:40.820Z,52.70
2022-11-12T20:36:12.506Z,47.45
2022-11-12T20:38:41.530Z,49.00
2022-11-12T20:41:14.166Z,49.42
2022-11-12T20:43:42.116Z,48.28
2022-11-12T20:46:11.840Z,48.90
2022-11-12T20:48:43.189Z,54.53
2022-11-12T20:51:28.931Z,53.78
2022-11-12T20:54:00.427Z,59.78
2022-11-12T20:56:30.253Z,52.40
2022-11-12T20:58:59.143Z,52.90
2022-11-12T21:01:30.299Z,55.50
2022-11-12T21:03:59.280Z,55.17
2022-11-12T21:06:29.200Z,53.08
2022-11-12T21:09:00.439Z,56.03
2022-11-12T21:11:28.386Z,50.17
2022-11-12T21:13:56.290Z,51.13
2022-11-12T21:16:24.158Z,55.05
2022-11-12T21:18:53.432Z,60.90
2022-11-12T21:21:21.584Z,60.90
2022-11-12T21:23:53.265Z,54.45
2022-11-12T21:26:23.158Z,54.87
2022-11-12T21:28:52.685Z,57.88
2022-11-12T21:31:22.488Z,57.88
2022-11-12T21:33:51.216Z,56.55
2022-11-12T21:36:21.277Z,58.28
2022-11-12T21:38:49.736Z,62.53
2022-11-12T21:41:20.005Z,58.22
2022-11-12T21:43:48.753Z,61.17
2022-11-12T21:46:18.455Z,60.50
2022-11-12T21:48:51.002Z,58.97
2022-11-12T21:51:24.496Z,59.75
2022-11-12T21:53:55.649Z,60.95
2022-11-12T21:56:27.261Z,56.10
2022-11-12T21:58:59.284Z,58.80
2022-11-12T22:01:29.351Z,61.42
2022-11-12T22:03:59.435Z,58.28
2022-11-12T22:06:30.726Z,59.85
2022-11-12T22:08:59.445Z,59.75
2022-11-12T22:11:28.352Z,63.65
2022-11-12T22:13:56.275Z,59.20
2022-11-12T22:16:26.355Z,59.90
2022-11-12T22:18:55.934Z,55.58
2022-11-12T22:21:25.737Z,62.10
2022-11-12T22:23:57.842Z,60.58
2022-11-12T22:26:27.880Z,62.15
2022-11-12T22:28:56.745Z,59.65
2022-11-12T22:31:26.983Z,63.92
2022-11-12T22:33:55.762Z,60.17
2022-11-12T22:36:25.682Z,62.83
2022-11-12T22:38:56.081Z,63.33
2022-11-12T22:41:26.150Z,58.85
2022-11-12T22:43:55.793Z,57.30
2022-11-12T22:46:25.478Z,55.95
2022-11-12T22:48:53.810Z,58.00
2022-11-12T22:51:23.340Z,56.88
2022-11-12T22:53:56.156Z,59.88
2022-11-12T22:56:24.722Z,58.15
2022-11-12T22:58:52.646Z,60.88
2022-11-12T23:01:22.112Z,62.25
2022-11-12T23:03:51.143Z,63.47
2022-11-12T23:06:19.836Z,59.58
2022-11-12T23:08:47.989Z,58.88
2022-11-12T23:11:19.634Z,61.13
2022-11-12T23:13:48.265Z,66.22
2022-11-12T23:16:18.278Z,61.45
2022-11-12T23:18:46.887Z,61.90
2022-11-12T23:21:16.757Z,60.10
2022-11-12T23:23:45.068Z,61.72
2022-11-12T23:26:15.024Z,62.75
2022-11-12T23:28:45.848Z,60.42
2022-11-12T23:31:16.278Z,61.00
2022-11-12T23:33:46.462Z,60.85
2022-11-12T23:36:14.355Z,68.20
2022-11-12T23:38:42.841Z,69.78
2022-11-12T23:41:12.776Z,70.75
2022-11-12T23:43:40.709Z,70.47
2022-11-12T23:46:10.041Z,73.53
2022-11-12T23:48:37.997Z,74.97
2022-11-12T23:51:08.312Z,76.78
2022-11-12T23:53:37.234Z,78.97
2022-11-12T23:56:07.006Z,78.15
2022-11-12T23:58:34.894Z,82.90
